sensor_id;sensor_type;location;lat;lon;timestamp;pressure;altitude;pressure_sealevel;temperature;humidity
63500;BME280;49654;51.142;14.924;2023-07-02T00:01:50;98142.75;;;19.13;79.12
63500;BME280;49654;51.142;14.924;2023-07-02T00:04:17;98173.94;;;19.32;79.25
63500;BME280;49654;51.142;14.924;2023-07-02T00:06:46;98165.50;;;19.35;78.69
63500;BME280;49654;51.142;14.924;2023-07-02T00:09:15;98154.69;;;19.26;78.07
63500;BME280;49654;51.142;14.924;2023-07-02T00:11:44;98168.72;;;19.42;78.19
63500;BME280;49654;51.142;14.924;2023-07-02T00:14:12;98159.28;;;19.51;77.74
63500;BME280;49654;51.142;14.924;2023-07-02T00:16:42;98142.97;;;19.54;77.57
63500;BME280;49654;51.142;14.924;2023-07-02T00:19:09;98158.75;;;19.49;77.55
63500;BME280;49654;51.142;14.924;2023-07-02T00:21:36;98156.16;;;19.59;76.48
63500;BME280;49654;51.142;14.924;2023-07-02T00:24:06;98151.13;;;19.52;76.94
63500;BME280;49654;51.142;14.924;2023-07-02T00:26:35;98151.66;;;19.49;77.26
63500;BME280;49654;51.142;14.924;2023-07-02T00:29:02;98145.56;;;19.44;77.28
63500;BME280;49654;51.142;14.924;2023-07-02T00:31:29;98145.72;;;19.22;77.74
63500;BME280;49654;51.142;14.924;2023-07-02T00:33:56;98046.44;;;18.65;77.73
63500;BME280;49654;51.142;14.924;2023-07-02T00:36:23;98140.53;;;19.37;77.55
63500;BME280;49654;51.142;14.924;2023-07-02T00:38:50;98138.13;;;19.31;77.21
63500;BME280;49654;51.142;14.924;2023-07-02T00:41:19;98147.06;;;19.30;77.25
63500;BME280;49654;51.142;14.924;2023-07-02T00:43:46;98147.06;;;19.30;77.56
63500;BME280;49654;51.142;14.924;2023-07-02T00:46:14;98146.75;;;19.21;77.65
63500;BME280;49654;51.142;14.924;2023-07-02T00:48:43;98138.06;;;19.20;77.57
63500;BME280;49654;51.142;14.924;2023-07-02T00:51:13;98112.53;;;19.16;77.07
63500;BME280;49654;51.142;14.924;2023-07-02T00:53:41;98126.78;;;19.25;77.00
63500;BME280;49654;51.142;14.924;2023-07-02T00:56:08;98118.66;;;19.32;76.68
63500;BME280;49654;51.142;14.924;2023-07-02T00:58:38;98119.16;;;19.29;77.00
63500;BME280;49654;51.142;14.924;2023-07-02T01:01:06;98114.22;;;19.37;76.70
63500;BME280;49654;51.142;14.924;2023-07-02T01:03:35;98115.47;;;19.30;76.64
63500;BME280;49654;51.142;14.924;2023-07-02T01:06:03;98101.22;;;19.20;76.68
63500;BME280;49654;51.142;14.924;2023-07-02T01:08:30;98129.81;;;19.49;75.83
63500;BME280;49654;51.142;14.924;2023-07-02T01:10:57;98105.47;;;19.26;75.68
63500;BME280;49654;51.142;14.924;2023-07-02T01:13:25;98080.16;;;19.10;75.88
63500;BME280;49654;51.142;14.924;2023-07-02T01:15:54;98126.34;;;19.43;75.68
63500;BME280;49654;51.142;14.924;2023-07-02T01:18:22;98130.28;;;19.41;75.66
63500;BME280;49654;51.142;14.924;2023-07-02T01:20:51;98121.56;;;19.35;75.91
63500;BME280;49654;51.142;14.924;2023-07-02T01:23:19;98106.53;;;19.31;75.40
63500;BME280;49654;51.142;14.924;2023-07-02T01:25:47;98124.47;;;19.39;74.74
63500;BME280;49654;51.142;14.924;2023-07-02T01:28:14;98127.66;;;19.41;74.65
63500;BME280;49654;51.142;14.924;2023-07-02T01:30:41;98124.00;;;19.52;73.97
63500;BME280;49654;51.142;14.924;2023-07-02T01:33:08;98117.72;;;19.58;73.65
63500;BME280;49654;51.142;14.924;2023-07-02T01:35:35;98118.06;;;19.72;73.12
63500;BME280;49654;51.142;14.924;2023-07-02T01:38:03;98115.69;;;19.70;72.84
63500;BME280;49654;51.142;14.924;2023-07-02T01:40:30;98093.28;;;19.63;72.42
63500;BME280;49654;51.142;14.924;2023-07-02T01:42:57;98113.00;;;19.65;71.84
63500;BME280;49654;51.142;14.924;2023-07-02T01:45:24;98103.00;;;19.62;72.33
63500;BME280;49654;51.142;14.924;2023-07-02T01:47:51;98120.69;;;19.72;72.24
63500;BME280;49654;51.142;14.924;2023-07-02T01:50:17;98106.69;;;19.61;72.29
63500;BME280;49654;51.142;14.924;2023-07-02T01:52:44;98083.97;;;19.50;72.42
63500;BME280;49654;51.142;14.924;2023-07-02T01:55:13;98118.81;;;19.67;72.58
63500;BME280;49654;51.142;14.924;2023-07-02T01:57:40;98085.03;;;19.49;72.76
63500;BME280;49654;51.142;14.924;2023-07-02T02:00:07;98120.94;;;19.70;72.84
63500;BME280;49654;51.142;14.924;2023-07-02T02:02:35;98117.53;;;19.80;72.52
63500;BME280;49654;51.142;14.924;2023-07-02T02:05:02;98127.81;;;19.82;71.98
63500;BME280;49654;51.142;14.924;2023-07-02T02:07:29;98124.66;;;19.80;72.16
63500;BME280;49654;51.142;14.924;2023-07-02T02:09:55;98124.88;;;19.73;72.61
63500;BME280;49654;51.142;14.924;2023-07-02T02:12:24;98094.34;;;19.67;71.69
63500;BME280;49654;51.142;14.924;2023-07-02T02:14:51;98124.69;;;19.90;71.77
63500;BME280;49654;51.142;14.924;2023-07-02T02:17:17;98119.41;;;19.85;71.86
63500;BME280;49654;51.142;14.924;2023-07-02T02:19:44;98135.78;;;19.97;71.81
63500;BME280;49654;51.142;14.924;2023-07-02T02:22:11;98105.66;;;19.72;71.37
63500;BME280;49654;51.142;14.924;2023-07-02T02:24:38;98123.59;;;19.75;72.15
63500;BME280;49654;51.142;14.924;2023-07-02T02:27:05;98130.72;;;19.90;72.30
63500;BME280;49654;51.142;14.924;2023-07-02T02:29:33;98129.94;;;19.80;72.06
63500;BME280;49654;51.142;14.924;2023-07-02T02:32:00;98100.06;;;19.54;72.25
63500;BME280;49654;51.142;14.924;2023-07-02T02:34:27;98131.50;;;19.70;72.79
63500;BME280;49654;51.142;14.924;2023-07-02T02:36:55;98135.19;;;19.74;72.06
63500;BME280;49654;51.142;14.924;2023-07-02T02:39:22;98132.06;;;19.88;72.04
63500;BME280;49654;51.142;14.924;2023-07-02T02:41:49;98092.09;;;19.43;71.90
63500;BME280;49654;51.142;14.924;2023-07-02T02:44:16;98116.97;;;19.68;71.86
63500;BME280;49654;51.142;14.924;2023-07-02T02:46:44;98141.78;;;19.82;72.27
63500;BME280;49654;51.142;14.924;2023-07-02T02:49:11;98144.16;;;19.79;72.24
63500;BME280;49654;51.142;14.924;2023-07-02T02:51:38;98142.03;;;19.81;72.28
63500;BME280;49654;51.142;14.924;2023-07-02T02:54:06;98076.31;;;19.48;71.99
63500;BME280;49654;51.142;14.924;2023-07-02T02:56:33;98139.19;;;19.87;71.82
63500;BME280;49654;51.142;14.924;2023-07-02T02:59:00;98138.13;;;19.88;72.20
63500;BME280;49654;51.142;14.924;2023-07-02T03:01:27;98131.78;;;19.94;71.22
63500;BME280;49654;51.142;14.924;2023-07-02T03:03:58;98146.03;;;19.93;71.65
63500;BME280;49654;51.142;14.924;2023-07-02T03:06:25;98144.41;;;19.77;71.96
63500;BME280;49654;51.142;14.924;2023-07-02T03:08:52;98127.81;;;19.76;72.04
63500;BME280;49654;51.142;14.924;2023-07-02T03:11:19;98137.78;;;19.69;72.66
63500;BME280;49654;51.142;14.924;2023-07-02T03:13:46;98129.88;;;19.69;72.91
63500;BME280;49654;51.142;14.924;2023-07-02T03:16:13;98135.72;;;19.87;72.14
63500;BME280;49654;51.142;14.924;2023-07-02T03:18:40;98137.06;;;19.84;71.73
63500;BME280;49654;51.142;14.924;2023-07-02T03:21:09;98109.88;;;19.73;71.75
63500;BME280;49654;51.142;14.924;2023-07-02T03:23:36;98138.91;;;19.89;71.83
63500;BME280;49654;51.142;14.924;2023-07-02T03:26:03;98143.63;;;19.82;72.32
63500;BME280;49654;51.142;14.924;2023-07-02T03:28:30;98101.38;;;19.56;72.14
63500;BME280;49654;51.142;14.924;2023-07-02T03:30:59;98143.63;;;19.87;72.15
63500;BME280;49654;51.142;14.924;2023-07-02T03:33:26;98151.00;;;19.85;73.00
63500;BME280;49654;51.142;14.924;2023-07-02T03:35:53;98141.16;;;19.60;74.59
63500;BME280;49654;51.142;14.924;2023-07-02T03:38:21;98170.56;;;19.41;77.18
63500;BME280;49654;51.142;14.924;2023-07-02T03:40:48;98171.09;;;19.01;80.57
63500;BME280;49654;51.142;14.924;2023-07-02T03:43:15;98149.00;;;18.65;83.41
63500;BME280;49654;51.142;14.924;2023-07-02T03:45:42;98175.81;;;18.67;84.59
63500;BME280;49654;51.142;14.924;2023-07-02T03:48:09;98162.84;;;18.55;85.33
63500;BME280;49654;51.142;14.924;2023-07-02T03:50:36;98172.81;;;18.53;86.24
63500;BME280;49654;51.142;14.924;2023-07-02T03:53:03;98177.34;;;18.63;86.49
63500;BME280;49654;51.142;14.924;2023-07-02T03:55:31;98175.75;;;18.57;87.18
63500;BME280;49654;51.142;14.924;2023-07-02T03:57:58;98179.97;;;18.63;87.40
63500;BME280;49654;51.142;14.924;2023-07-02T04:00:25;98142.50;;;18.45;86.82
63500;BME280;49654;51.142;14.924;2023-07-02T04:02:52;98183.47;;;18.68;87.37
63500;BME280;49654;51.142;14.924;2023-07-02T04:05:18;98174.91;;;18.83;86.94
63500;BME280;49654;51.142;14.924;2023-07-02T04:07:46;98176.31;;;18.91;86.38
63500;BME280;49654;51.142;14.924;2023-07-02T04:10:13;98181.63;;;19.01;85.63
63500;BME280;49654;51.142;14.924;2023-07-02T04:12:41;98180.00;;;18.95;85.75
63500;BME280;49654;51.142;14.924;2023-07-02T04:15:09;98168.22;;;18.97;85.18
63500;BME280;49654;51.142;14.924;2023-07-02T04:17:36;98184.88;;;19.13;85.41
63500;BME280;49654;51.142;14.924;2023-07-02T04:20:03;98178.06;;;19.17;84.95
63500;BME280;49654;51.142;14.924;2023-07-02T04:22:32;98189.19;;;19.35;84.06
63500;BME280;49654;51.142;14.924;2023-07-02T04:24:59;98168.59;;;19.21;83.88
63500;BME280;49654;51.142;14.924;2023-07-02T04:27:26;98192.69;;;19.45;83.34
63500;BME280;49654;51.142;14.924;2023-07-02T04:29:54;98189.03;;;19.51;82.88
63500;BME280;49654;51.142;14.924;2023-07-02T04:32:22;98196.25;;;19.66;81.85
63500;BME280;49654;51.142;14.924;2023-07-02T04:34:49;98194.91;;;19.64;82.01
63500;BME280;49654;51.142;14.924;2023-07-02T04:37:16;98176.22;;;19.65;81.81
63500;BME280;49654;51.142;14.924;2023-07-02T04:39:43;98182.53;;;19.64;82.02
63500;BME280;49654;51.142;14.924;2023-07-02T04:42:10;98178.75;;;19.50;81.33
63500;BME280;49654;51.142;14.924;2023-07-02T04:44:40;98213.13;;;19.70;81.79
63500;BME280;49654;51.142;14.924;2023-07-02T04:47:10;98190.53;;;19.37;82.04
63500;BME280;49654;51.142;14.924;2023-07-02T04:49:37;98195.72;;;19.64;81.24
63500;BME280;49654;51.142;14.924;2023-07-02T04:52:04;98203.59;;;19.64;80.71
63500;BME280;49654;51.142;14.924;2023-07-02T04:54:31;98195.22;;;19.72;80.40
63500;BME280;49654;51.142;14.924;2023-07-02T04:56:58;98167.97;;;19.57;80.08
63500;BME280;49654;51.142;14.924;2023-07-02T04:59:25;98205.75;;;19.72;80.62
63500;BME280;49654;51.142;14.924;2023-07-02T05:01:52;98218.13;;;19.72;81.31
63500;BME280;49654;51.142;14.924;2023-07-02T05:04:20;98230.44;;;19.61;81.30
63500;BME280;49654;51.142;14.924;2023-07-02T05:06:47;98231.09;;;19.36;79.40
63500;BME280;49654;51.142;14.924;2023-07-02T05:09:14;98224.91;;;19.20;79.48
63500;BME280;49654;51.142;14.924;2023-07-02T05:11:41;98237.44;;;19.03;79.86
63500;BME280;49654;51.142;14.924;2023-07-02T05:14:08;98247.59;;;18.89;80.13
63500;BME280;49654;51.142;14.924;2023-07-02T05:16:35;98259.56;;;18.53;79.91
63500;BME280;49654;51.142;14.924;2023-07-02T05:19:02;98248.22;;;18.47;80.84
63500;BME280;49654;51.142;14.924;2023-07-02T05:21:30;98266.19;;;18.56;81.24
63500;BME280;49654;51.142;14.924;2023-07-02T05:23:57;98261.06;;;18.44;80.79
63500;BME280;49654;51.142;14.924;2023-07-02T05:26:24;98262.53;;;18.35;81.87
63500;BME280;49654;51.142;14.924;2023-07-02T05:28:51;98221.22;;;18.03;80.45
63500;BME280;49654;51.142;14.924;2023-07-02T05:31:18;98282.78;;;18.34;81.92
63500;BME280;49654;51.142;14.924;2023-07-02T05:33:45;98278.13;;;18.19;81.61
63500;BME280;49654;51.142;14.924;2023-07-02T05:36:12;98289.72;;;18.45;82.23
63500;BME280;49654;51.142;14.924;2023-07-02T05:38:41;98291.16;;;18.58;81.64
63500;BME280;49654;51.142;14.924;2023-07-02T05:41:08;98294.50;;;18.26;80.25
63500;BME280;49654;51.142;14.924;2023-07-02T05:43:34;98283.06;;;17.94;81.18
63500;BME280;49654;51.142;14.924;2023-07-02T05:46:01;98254.25;;;17.60;82.28
63500;BME280;49654;51.142;14.924;2023-07-02T05:48:28;98295.66;;;17.92;83.34
63500;BME280;49654;51.142;14.924;2023-07-02T05:50:55;98275.69;;;17.91;82.19
63500;BME280;49654;51.142;14.924;2023-07-02T05:53:22;98280.44;;;17.94;82.47
63500;BME280;49654;51.142;14.924;2023-07-02T05:55:50;98291.78;;;18.16;81.34
63500;BME280;49654;51.142;14.924;2023-07-02T05:58:17;98294.13;;;18.40;80.68
63500;BME280;49654;51.142;14.924;2023-07-02T06:00:44;98295.78;;;18.46;80.43
63500;BME280;49654;51.142;14.924;2023-07-02T06:03:15;98289.34;;;18.37;80.08
63500;BME280;49654;51.142;14.924;2023-07-02T06:05:46;98277.19;;;18.52;78.66
63500;BME280;49654;51.142;14.924;2023-07-02T06:08:13;98291.34;;;18.73;78.17
63500;BME280;49654;51.142;14.924;2023-07-02T06:10:41;98268.97;;;18.71;78.66
63500;BME280;49654;51.142;14.924;2023-07-02T06:13:09;98288.75;;;19.06;77.33
63500;BME280;49654;51.142;14.924;2023-07-02T06:15:36;98291.50;;;19.21;76.84
63500;BME280;49654;51.142;14.924;2023-07-02T06:18:03;98298.44;;;19.32;75.73
63500;BME280;49654;51.142;14.924;2023-07-02T06:20:30;98300.53;;;19.30;74.35
63500;BME280;49654;51.142;14.924;2023-07-02T06:22:57;98299.47;;;19.63;74.12
63500;BME280;49654;51.142;14.924;2023-07-02T06:25:24;98299.72;;;19.62;73.90
63500;BME280;49654;51.142;14.924;2023-07-02T06:27:51;98296.13;;;19.41;73.08
63500;BME280;49654;51.142;14.924;2023-07-02T06:30:22;98291.91;;;19.40;73.93
63500;BME280;49654;51.142;14.924;2023-07-02T06:32:49;98232.50;;;19.12;73.97
63500;BME280;49654;51.142;14.924;2023-07-02T06:35:16;98287.97;;;19.42;73.95
63500;BME280;49654;51.142;14.924;2023-07-02T06:37:43;98311.78;;;19.20;74.86
63500;BME280;49654;51.142;14.924;2023-07-02T06:40:11;98306.44;;;19.10;75.61
63500;BME280;49654;51.142;14.924;2023-07-02T06:42:38;98281.09;;;18.72;76.59
63500;BME280;49654;51.142;14.924;2023-07-02T06:45:06;98296.34;;;18.75;75.94
63500;BME280;49654;51.142;14.924;2023-07-02T06:47:35;98304.16;;;18.92;75.36
63500;BME280;49654;51.142;14.924;2023-07-02T06:50:02;98314.72;;;18.97;75.38
63500;BME280;49654;51.142;14.924;2023-07-02T06:52:29;98323.41;;;18.97;75.35
63500;BME280;49654;51.142;14.924;2023-07-02T06:54:56;98323.34;;;18.92;75.32
63500;BME280;49654;51.142;14.924;2023-07-02T06:57:26;98326.41;;;19.43;73.99
63500;BME280;49654;51.142;14.924;2023-07-02T07:03:01;98316.97;;;19.85;71.54
63500;BME280;49654;51.142;14.924;2023-07-02T07:05:34;98279.06;;;19.48;71.72
63500;BME280;49654;51.142;14.924;2023-07-02T07:08:04;98159.47;;;18.92;71.03
63500;BME280;49654;51.142;14.924;2023-07-02T07:10:31;98305.72;;;19.57;70.04
63500;BME280;49654;51.142;14.924;2023-07-02T07:13:00;98253.72;;;19.74;71.21
63500;BME280;49654;51.142;14.924;2023-07-02T07:15:35;98312.34;;;20.07;70.24
63500;BME280;49654;51.142;14.924;2023-07-02T07:18:04;98308.16;;;20.11;70.12
63500;BME280;49654;51.142;14.924;2023-07-02T07:20:31;98308.63;;;20.71;69.08
63500;BME280;49654;51.142;14.924;2023-07-02T07:22:58;98309.69;;;20.85;67.14
63500;BME280;49654;51.142;14.924;2023-07-02T07:25:25;98312.22;;;20.34;67.73
63500;BME280;49654;51.142;14.924;2023-07-02T07:27:52;98276.09;;;20.35;68.13
63500;BME280;49654;51.142;14.924;2023-07-02T07:30:19;98306.75;;;20.56;66.82
63500;BME280;49654;51.142;14.924;2023-07-02T07:32:49;98317.59;;;20.65;67.97
63500;BME280;49654;51.142;14.924;2023-07-02T07:35:17;98310.69;;;20.48;67.87
63500;BME280;49654;51.142;14.924;2023-07-02T07:37:44;98315.75;;;20.60;67.68
63500;BME280;49654;51.142;14.924;2023-07-02T07:40:12;98294.47;;;20.19;68.10
63500;BME280;49654;51.142;14.924;2023-07-02T07:42:42;98325.84;;;20.21;67.55
63500;BME280;49654;51.142;14.924;2023-07-02T07:45:10;98291.06;;;20.19;67.38
63500;BME280;49654;51.142;14.924;2023-07-02T07:47:37;98314.28;;;20.27;67.45
63500;BME280;49654;51.142;14.924;2023-07-02T07:50:05;98326.31;;;20.75;67.33
63500;BME280;49654;51.142;14.924;2023-07-02T07:52:38;98320.25;;;20.85;65.48
63500;BME280;49654;51.142;14.924;2023-07-02T07:55:05;98293.88;;;20.70;65.01
63500;BME280;49654;51.142;14.924;2023-07-02T07:57:33;98305.44;;;20.59;62.96
63500;BME280;49654;51.142;14.924;2023-07-02T08:00:00;98335.78;;;20.56;62.76
63500;BME280;49654;51.142;14.924;2023-07-02T08:02:29;98319.97;;;20.66;64.95
63500;BME280;49654;51.142;14.924;2023-07-02T08:04:56;98334.00;;;20.82;64.20
63500;BME280;49654;51.142;14.924;2023-07-02T08:07:23;98329.97;;;20.54;61.22
63500;BME280;49654;51.142;14.924;2023-07-02T08:09:51;98305.16;;;20.55;58.88
63500;BME280;49654;51.142;14.924;2023-07-02T08:12:18;98325.06;;;20.98;59.30
63500;BME280;49654;51.142;14.924;2023-07-02T08:14:45;98316.88;;;21.31;55.32
63500;BME280;49654;51.142;14.924;2023-07-02T08:17:12;98312.94;;;21.59;56.07
63500;BME280;49654;51.142;14.924;2023-07-02T08:19:39;98263.00;;;21.37;54.68
63500;BME280;49654;51.142;14.924;2023-07-02T08:22:06;98318.06;;;22.20;52.79
63500;BME280;49654;51.142;14.924;2023-07-02T08:24:33;98329.75;;;21.93;50.30
63500;BME280;49654;51.142;14.924;2023-07-02T08:27:01;98321.09;;;21.72;51.33
63500;BME280;49654;51.142;14.924;2023-07-02T08:29:29;98334.75;;;22.10;51.92
63500;BME280;49654;51.142;14.924;2023-07-02T08:31:56;98298.88;;;21.73;52.38
63500;BME280;49654;51.142;14.924;2023-07-02T08:34:23;98328.63;;;22.10;51.92
63500;BME280;49654;51.142;14.924;2023-07-02T08:36:50;98322.53;;;22.24;51.80
63500;BME280;49654;51.142;14.924;2023-07-02T08:39:17;98332.09;;;22.15;52.44
63500;BME280;49654;51.142;14.924;2023-07-02T08:41:46;98315.25;;;21.70;51.98
63500;BME280;49654;51.142;14.924;2023-07-02T08:44:16;98313.91;;;21.83;51.60
63500;BME280;49654;51.142;14.924;2023-07-02T08:46:45;98321.78;;;22.14;50.12
63500;BME280;49654;51.142;14.924;2023-07-02T08:49:16;98335.19;;;22.38;52.01
63500;BME280;49654;51.142;14.924;2023-07-02T08:51:44;98339.94;;;22.41;48.74
63500;BME280;49654;51.142;14.924;2023-07-02T08:54:11;98314.53;;;22.45;51.43
63500;BME280;49654;51.142;14.924;2023-07-02T08:56:38;98321.19;;;22.32;51.08
63500;BME280;49654;51.142;14.924;2023-07-02T08:59:06;98341.88;;;22.05;50.27
63500;BME280;49654;51.142;14.924;2023-07-02T09:01:44;98344.75;;;22.29;52.02
63500;BME280;49654;51.142;14.924;2023-07-02T09:04:15;98340.31;;;22.68;50.51
63500;BME280;49654;51.142;14.924;2023-07-02T09:06:42;98336.56;;;22.80;47.14
63500;BME280;49654;51.142;14.924;2023-07-02T09:09:09;98338.00;;;22.57;48.89
63500;BME280;49654;51.142;14.924;2023-07-02T09:11:46;98338.69;;;22.72;48.58
63500;BME280;49654;51.142;14.924;2023-07-02T09:14:23;98332.34;;;22.79;50.03
63500;BME280;49654;51.142;14.924;2023-07-02T09:17:03;98323.09;;;22.71;50.04
63500;BME280;49654;51.142;14.924;2023-07-02T09:19:31;98332.97;;;23.05;48.39
63500;BME280;49654;51.142;14.924;2023-07-02T09:21:58;98342.94;;;23.18;50.52
63500;BME280;49654;51.142;14.924;2023-07-02T09:24:30;98316.91;;;22.86;48.52
63500;BME280;49654;51.142;14.924;2023-07-02T09:26:58;98318.97;;;23.33;48.37
63500;BME280;49654;51.142;14.924;2023-07-02T09:29:27;98329.41;;;23.83;44.50
63500;BME280;49654;51.142;14.924;2023-07-02T09:31:55;98338.09;;;23.88;46.22
63500;BME280;49654;51.142;14.924;2023-07-02T09:34:31;98340.97;;;23.92;43.80
63500;BME280;49654;51.142;14.924;2023-07-02T09:37:00;98345.59;;;24.05;42.57
63500;BME280;49654;51.142;14.924;2023-07-02T09:39:28;98334.59;;;23.35;42.56
63500;BME280;49654;51.142;14.924;2023-07-02T09:41:56;98339.56;;;23.07;43.23
63500;BME280;49654;51.142;14.924;2023-07-02T09:44:26;98313.06;;;22.68;45.17
63500;BME280;49654;51.142;14.924;2023-07-02T09:46:58;98343.72;;;23.18;45.26
63500;BME280;49654;51.142;14.924;2023-07-02T09:49:32;98266.47;;;23.40;44.44
63500;BME280;49654;51.142;14.924;2023-07-02T09:52:01;98354.63;;;24.04;42.19
63500;BME280;49654;51.142;14.924;2023-07-02T09:54:29;98336.06;;;23.51;44.66
63500;BME280;49654;51.142;14.924;2023-07-02T09:56:56;98349.19;;;23.32;45.90
63500;BME280;49654;51.142;14.924;2023-07-02T09:59:23;98345.31;;;23.19;45.80
63500;BME280;49654;51.142;14.924;2023-07-02T10:01:50;98355.56;;;22.92;46.88
63500;BME280;49654;51.142;14.924;2023-07-02T10:04:19;98350.50;;;23.01;46.97
63500;BME280;49654;51.142;14.924;2023-07-02T10:06:49;98354.28;;;23.23;45.74
63500;BME280;49654;51.142;14.924;2023-07-02T10:09:17;98306.31;;;23.25;46.06
63500;BME280;49654;51.142;14.924;2023-07-02T10:11:44;98243.47;;;22.28;44.74
63500;BME280;49654;51.142;14.924;2023-07-02T10:14:11;98338.72;;;24.04;44.46
63500;BME280;49654;51.142;14.924;2023-07-02T10:16:51;98321.00;;;28.35;36.39
63500;BME280;49654;51.142;14.924;2023-07-02T10:19:19;98341.03;;;27.08;37.16
63500;BME280;49654;51.142;14.924;2023-07-02T10:22:00;98331.66;;;24.18;40.32
63500;BME280;49654;51.142;14.924;2023-07-02T10:24:28;98326.56;;;24.84;39.42
63500;BME280;49654;51.142;14.924;2023-07-02T10:26:56;98354.09;;;26.96;37.25
63500;BME280;49654;51.142;14.924;2023-07-02T10:29:23;98341.34;;;28.23;32.03
63500;BME280;49654;51.142;14.924;2023-07-02T10:31:51;98341.13;;;26.31;35.27
63500;BME280;49654;51.142;14.924;2023-07-02T10:34:29;98345.72;;;26.25;35.63
63500;BME280;49654;51.142;14.924;2023-07-02T10:36:57;98354.09;;;25.91;35.99
63500;BME280;49654;51.142;14.924;2023-07-02T10:39:24;98353.63;;;25.89;35.51
63500;BME280;49654;51.142;14.924;2023-07-02T10:41:52;98357.88;;;24.68;38.50
63500;BME280;49654;51.142;14.924;2023-07-02T10:44:19;98359.38;;;24.55;39.33
63500;BME280;49654;51.142;14.924;2023-07-02T10:46:46;98355.69;;;25.45;38.52
63500;BME280;49654;51.142;14.924;2023-07-02T10:49:13;98354.19;;;26.41;36.59
63500;BME280;49654;51.142;14.924;2023-07-02T10:51:40;98363.88;;;26.64;34.44
63500;BME280;49654;51.142;14.924;2023-07-02T10:54:08;98351.53;;;26.68;36.11
63500;BME280;49654;51.142;14.924;2023-07-02T10:56:35;98341.59;;;26.60;35.69
63500;BME280;49654;51.142;14.924;2023-07-02T10:59:03;98363.97;;;26.18;37.63
63500;BME280;49654;51.142;14.924;2023-07-02T11:01:31;98356.94;;;24.78;37.88
63500;BME280;49654;51.142;14.924;2023-07-02T11:03:59;98360.44;;;24.30;39.23
63500;BME280;49654;51.142;14.924;2023-07-02T11:06:26;98364.25;;;24.24;39.93
63500;BME280;49654;51.142;14.924;2023-07-02T11:08:54;98360.22;;;26.60;37.99
63500;BME280;49654;51.142;14.924;2023-07-02T11:11:23;98323.53;;;27.69;34.99
63500;BME280;49654;51.142;14.924;2023-07-02T11:13:51;98339.59;;;30.21;30.03
63500;BME280;49654;51.142;14.924;2023-07-02T11:16:20;98341.16;;;30.93;26.50
63500;BME280;49654;51.142;14.924;2023-07-02T11:18:48;98355.81;;;31.62;26.10
63500;BME280;49654;51.142;14.924;2023-07-02T11:21:15;98333.91;;;32.46;26.04
63500;BME280;49654;51.142;14.924;2023-07-02T11:23:42;98340.84;;;32.87;25.74
63500;BME280;49654;51.142;14.924;2023-07-02T11:26:09;98340.00;;;34.73;24.55
63500;BME280;49654;51.142;14.924;2023-07-02T11:28:49;98353.16;;;32.88;24.47
63500;BME280;49654;51.142;14.924;2023-07-02T11:31:26;98359.97;;;29.49;29.12
63500;BME280;49654;51.142;14.924;2023-07-02T11:33:53;98368.56;;;27.40;31.61
63500;BME280;49654;51.142;14.924;2023-07-02T11:36:22;98370.69;;;26.93;33.17
63500;BME280;49654;51.142;14.924;2023-07-02T11:38:50;98278.72;;;25.40;34.99
63500;BME280;49654;51.142;14.924;2023-07-02T11:41:18;98344.88;;;25.04;36.25
63500;BME280;49654;51.142;14.924;2023-07-02T11:43:47;98383.16;;;25.22;36.62
63500;BME280;49654;51.142;14.924;2023-07-02T11:46:14;98381.66;;;24.97;36.40
63500;BME280;49654;51.142;14.924;2023-07-02T11:48:42;98367.22;;;25.03;38.13
63500;BME280;49654;51.142;14.924;2023-07-02T11:51:09;98377.91;;;24.98;38.42
63500;BME280;49654;51.142;14.924;2023-07-02T11:53:36;98355.38;;;25.47;37.35
63500;BME280;49654;51.142;14.924;2023-07-02T11:56:03;98374.50;;;27.14;35.44
63500;BME280;49654;51.142;14.924;2023-07-02T11:58:30;98304.97;;;27.87;32.46
63500;BME280;49654;51.142;14.924;2023-07-02T12:00:58;98349.75;;;27.45;32.75
63500;BME280;49654;51.142;14.924;2023-07-02T12:03:25;98387.72;;;26.42;34.46
63500;BME280;49654;51.142;14.924;2023-07-02T12:05:53;98359.75;;;25.24;36.41
63500;BME280;49654;51.142;14.924;2023-07-02T12:08:20;98377.69;;;26.39;34.85
63500;BME280;49654;51.142;14.924;2023-07-02T12:10:47;98359.94;;;26.98;34.05
63500;BME280;49654;51.142;14.924;2023-07-02T12:13:14;98373.03;;;27.31;33.62
63500;BME280;49654;51.142;14.924;2023-07-02T12:15:42;98386.75;;;27.38;33.58
63500;BME280;49654;51.142;14.924;2023-07-02T12:18:11;98275.59;;;26.21;34.25
63500;BME280;49654;51.142;14.924;2023-07-02T12:20:39;98378.63;;;27.20;35.10
63500;BME280;49654;51.142;14.924;2023-07-02T12:23:09;98241.34;;;29.45;29.90
63500;BME280;49654;51.142;14.924;2023-07-02T12:25:37;98382.88;;;27.98;32.82
63500;BME280;49654;51.142;14.924;2023-07-02T12:28:04;98261.97;;;25.40;35.01
63500;BME280;49654;51.142;14.924;2023-07-02T12:30:32;98333.13;;;26.03;36.86
63500;BME280;49654;51.142;14.924;2023-07-02T12:32:59;98386.16;;;26.55;35.53
63500;BME280;49654;51.142;14.924;2023-07-02T12:35:27;98373.59;;;27.95;33.65
63500;BME280;49654;51.142;14.924;2023-07-02T12:37:54;98381.88;;;26.81;34.27
63500;BME280;49654;51.142;14.924;2023-07-02T12:40:21;98380.53;;;26.70;35.75
63500;BME280;49654;51.142;14.924;2023-07-02T12:42:48;98357.28;;;26.48;35.12
63500;BME280;49654;51.142;14.924;2023-07-02T12:45:16;98236.88;;;25.60;35.90
63500;BME280;49654;51.142;14.924;2023-07-02T12:47:43;98382.50;;;26.23;37.15
63500;BME280;49654;51.142;14.924;2023-07-02T12:50:11;98385.34;;;25.53;37.83
63500;BME280;49654;51.142;14.924;2023-07-02T12:52:39;98249.78;;;24.87;38.01
63500;BME280;49654;51.142;14.924;2023-07-02T12:55:08;98365.59;;;28.52;33.42
63500;BME280;49654;51.142;14.924;2023-07-02T12:57:35;98291.47;;;33.52;25.37